Time;durP1;ratioP1;P1;durP2;ratioP2;P2;SDS_P1;SDS_P2;PMS_P1;PMS_P2;Temp;Humidity;BMP_temperature;BMP_pressure;BME280_temperature;BME280_humidity;BME280_pressure;Samples;Min_cycle;Max_cycle;Signal;HPM_P1;HPM_P2
2022/03/18 00:02:25;;;;;;;;;;;6.90;99.90;;;;;;5055017;28;20495;-62
2022/03/18 00:04:54;;;;;;;;;;;6.90;99.90;;;;;;5049897;28;20046;-61
2022/03/18 00:07:22;;;;;;;;;;;6.90;99.90;;;;;;5051635;28;20391;-62
2022/03/18 00:09:49;;;;;;;;;;;6.90;99.90;;;;;;5051835;28;20065;-62
2022/03/18 00:12:18;;;;;;;;;;;6.90;99.90;;;;;;5051486;28;20449;-62
2022/03/18 00:14:47;;;;;;;;;;;6.90;99.90;;;;;;5051945;28;19963;-62
2022/03/18 00:17:14;;;;;;;;;;;6.90;99.90;;;;;;5051069;28;20057;-62
2022/03/18 00:19:42;;;;;;;;;;;6.90;99.90;;;;;;5050275;28;20041;-62
2022/03/18 00:22:12;;;;;;;;;;;6.90;99.90;;;;;;5049489;28;20058;-63
2022/03/18 00:24:39;;;;;;;;;;;6.80;99.90;;;;;;5050264;28;20057;-63
2022/03/18 00:27:08;;;;;;;;;;;6.80;99.90;;;;;;5049890;28;20695;-62
2022/03/18 00:29:36;;;;;;;;;;;6.80;99.90;;;;;;5050679;28;20001;-63
2022/03/18 00:32:05;;;;;;;;;;;6.80;99.90;;;;;;5059378;28;20069;-62
2022/03/18 00:34:34;;;;;;;;;;;6.80;99.90;;;;;;5051048;28;20499;-63
2022/03/18 00:37:02;;;;;;;;;;;6.80;99.90;;;;;;5050360;28;20391;-62
2022/03/18 00:39:30;;;;;;;;;;;6.80;99.90;;;;;;5049725;28;19990;-62
2022/03/18 00:41:58;;;;;;;;;;;6.80;99.90;;;;;;5049599;28;20480;-62
2022/03/18 00:44:25;;;;;;;;;;;6.90;99.90;;;;;;5050672;28;20070;-62
2022/03/18 00:46:53;;;;;;;;;;;6.80;99.90;;;;;;5049520;28;20522;-62
2022/03/18 00:52:08;;;;;;;;;;;6.80;99.90;;;;;;5051164;28;19963;-62
2022/03/18 00:54:36;;;;;;;;;;;6.80;99.90;;;;;;5050481;28;19973;-62
2022/03/18 00:57:04;;;;;;;;;;;6.70;99.90;;;;;;5049313;28;20498;-63
2022/03/18 00:59:32;;;;;;;;;;;6.70;99.90;;;;;;5050307;28;20429;-63
2022/03/18 01:02:00;;;;;;;;;;;6.70;99.90;;;;;;5057761;28;20049;-61
2022/03/18 01:04:29;;;;;;;;;;;6.70;99.90;;;;;;5050399;28;19970;-62
2022/03/18 01:06:57;;;;;;;;;;;6.70;99.90;;;;;;5048976;28;20049;-62
2022/03/18 01:09:26;;;;;;;;;;;6.70;99.90;;;;;;5048011;28;20006;-61
2022/03/18 01:11:54;;;;;;;;;;;6.70;99.90;;;;;;5052050;28;20073;-63
2022/03/18 01:14:23;;;;;;;;;;;6.70;99.90;;;;;;5053261;28;20463;-62
2022/03/18 01:16:51;;;;;;;;;;;6.70;99.90;;;;;;5051733;28;19963;-62
2022/03/18 01:19:19;;;;;;;;;;;6.70;99.90;;;;;;5054431;28;20431;-61
2022/03/18 01:21:48;;;;;;;;;;;6.70;99.90;;;;;;5054204;28;19998;-62
2022/03/18 01:24:16;;;;;;;;;;;6.60;99.90;;;;;;5054389;28;20046;-62
2022/03/18 01:26:43;;;;;;;;;;;6.60;99.90;;;;;;5054655;28;19958;-62
2022/03/18 01:29:12;;;;;;;;;;;6.60;99.90;;;;;;5055027;28;20350;-62
2022/03/18 01:31:39;;;;;;;;;;;6.60;99.90;;;;;;5054482;28;20062;-62
2022/03/18 01:34:07;;;;;;;;;;;6.60;99.90;;;;;;5053674;28;20016;-62
2022/03/18 01:36:36;;;;;;;;;;;6.50;99.90;;;;;;5053518;28;20070;-62
2022/03/18 01:39:05;;;;;;;;;;;6.50;99.90;;;;;;5054981;28;20410;-61
2022/03/18 01:41:33;;;;;;;;;;;6.50;99.90;;;;;;5052602;28;20057;-63
2022/03/18 01:44:01;;;;;;;;;;;6.50;99.90;;;;;;5053304;28;20389;-61
2022/03/18 01:46:29;;;;;;;;;;;6.50;99.90;;;;;;5052649;28;19982;-62
2022/03/18 01:48:56;;;;;;;;;;;6.50;99.90;;;;;;5052405;28;20438;-62
2022/03/18 01:51:24;;;;;;;;;;;6.50;99.90;;;;;;5052101;28;20491;-62
2022/03/18 01:54:44;;;;;;;;;;;6.50;99.90;;;;;;5053839;28;20443;-63
2022/03/18 01:56:41;;;;;;;;;;;6.50;99.90;;;;;;5051790;28;19969;-62
2022/03/18 01:59:09;;;;;;;;;;;6.50;99.90;;;;;;5050402;28;19993;-62
2022/03/18 02:01:37;;;;;;;;;;;6.50;99.90;;;;;;5054961;28;20061;-63
2022/03/18 02:04:05;;;;;;;;;;;6.50;99.90;;;;;;5050125;28;20465;-62
2022/03/18 02:06:36;;;;;;;;;;;6.50;99.90;;;;;;5050824;28;20481;-63
2022/03/18 02:09:05;;;;;;;;;;;6.50;99.90;;;;;;5046821;28;20018;-63
2022/03/18 02:11:33;;;;;;;;;;;6.50;99.90;;;;;;5051130;28;21969;-62
2022/03/18 02:14:02;;;;;;;;;;;6.50;99.90;;;;;;5052694;28;20506;-62
2022/03/18 02:16:29;;;;;;;;;;;6.50;99.90;;;;;;5052087;28;20398;-63
2022/03/18 02:18:57;;;;;;;;;;;6.50;99.90;;;;;;5052502;28;19985;-63
2022/03/18 02:21:28;;;;;;;;;;;6.40;99.90;;;;;;5053433;28;20367;-62
2022/03/18 02:23:57;;;;;;;;;;;6.40;99.90;;;;;;5051676;28;19998;-62
2022/03/18 02:26:25;;;;;;;;;;;6.40;99.90;;;;;;5051308;28;20057;-62
2022/03/18 02:28:53;;;;;;;;;;;6.40;99.90;;;;;;5052697;28;20102;-62
2022/03/18 02:31:21;;;;;;;;;;;6.40;99.90;;;;;;5052968;28;20046;-62
2022/03/18 02:33:48;;;;;;;;;;;6.40;99.90;;;;;;5052898;28;20049;-62
2022/03/18 02:36:16;;;;;;;;;;;6.40;99.90;;;;;;5061863;28;20002;-61
2022/03/18 02:38:44;;;;;;;;;;;6.40;99.90;;;;;;5053728;28;19998;-62
2022/03/18 02:41:13;;;;;;;;;;;6.40;99.90;;;;;;5050503;28;19989;-63
2022/03/18 02:43:41;;;;;;;;;;;6.40;99.90;;;;;;5051195;28;20002;-61
2022/03/18 02:46:10;;;;;;;;;;;6.30;99.90;;;;;;5052752;28;19970;-61
2022/03/18 02:48:38;;;;;;;;;;;6.30;99.90;;;;;;5052660;28;19963;-63
2022/03/18 02:51:07;;;;;;;;;;;6.40;99.90;;;;;;5052649;28;19962;-62
2022/03/18 02:53:35;;;;;;;;;;;6.30;99.90;;;;;;5050835;28;20430;-62
2022/03/18 02:56:04;;;;;;;;;;;6.30;99.90;;;;;;5051771;28;20045;-62
2022/03/18 02:58:34;;;;;;;;;;;6.30;99.90;;;;;;5051949;28;20009;-62
2022/03/18 03:01:03;;;;;;;;;;;6.40;99.90;;;;;;5051484;28;20021;-62
2022/03/18 03:03:31;;;;;;;;;;;6.40;99.90;;;;;;5051980;28;19971;-62
2022/03/18 03:08:44;;;;;;;;;;;6.30;99.90;;;;;;5051361;28;20061;-62
2022/03/18 03:11:12;;;;;;;;;;;6.30;99.90;;;;;;5050772;28;19966;-62
2022/03/18 03:13:41;;;;;;;;;;;6.30;99.90;;;;;;5049860;28;20061;-61
2022/03/18 03:16:09;;;;;;;;;;;6.30;99.90;;;;;;5051862;28;20058;-62
2022/03/18 03:18:36;;;;;;;;;;;6.30;99.90;;;;;;5052024;28;20342;-62
2022/03/18 03:21:04;;;;;;;;;;;6.30;99.90;;;;;;5049823;28;19970;-62
2022/03/18 03:23:32;;;;;;;;;;;6.30;99.90;;;;;;5051725;28;20012;-63
2022/03/18 03:26:00;;;;;;;;;;;6.30;99.90;;;;;;5050251;28;19959;-62
2022/03/18 03:28:28;;;;;;;;;;;6.20;99.90;;;;;;5051046;28;20005;-62
2022/03/18 03:30:57;;;;;;;;;;;6.20;99.90;;;;;;5051708;28;20002;-62
2022/03/18 03:33:26;;;;;;;;;;;6.20;99.90;;;;;;5050491;28;20057;-63
2022/03/18 03:35:54;;;;;;;;;;;6.20;99.90;;;;;;5055731;28;20045;-62
2022/03/18 03:38:23;;;;;;;;;;;6.30;99.90;;;;;;5052939;28;20407;-62
2022/03/18 03:40:50;;;;;;;;;;;6.20;99.90;;;;;;5049840;28;20010;-63
2022/03/18 03:43:18;;;;;;;;;;;6.20;99.90;;;;;;5051480;28;20060;-62
2022/03/18 03:45:46;;;;;;;;;;;6.20;99.90;;;;;;5049917;28;20394;-62
2022/03/18 03:48:15;;;;;;;;;;;6.20;99.90;;;;;;5050519;28;20327;-62
2022/03/18 03:50:43;;;;;;;;;;;6.20;99.90;;;;;;5047913;28;19982;-62
2022/03/18 03:53:11;;;;;;;;;;;6.10;99.90;;;;;;5043695;28;20050;-62
2022/03/18 03:55:40;;;;;;;;;;;6.10;99.90;;;;;;5046911;28;20349;-62
2022/03/18 03:58:08;;;;;;;;;;;6.10;99.90;;;;;;5048077;28;19963;-62
2022/03/18 04:00:37;;;;;;;;;;;6.10;99.90;;;;;;5049681;28;20437;-63
2022/03/18 04:03:05;;;;;;;;;;;6.10;99.90;;;;;;5044384;28;19966;-62
2022/03/18 04:05:35;;;;;;;;;;;6.10;99.90;;;;;;5052592;28;19962;-62
2022/03/18 04:08:03;;;;;;;;;;;6.10;99.90;;;;;;5050716;28;20013;-62
2022/03/18 04:10:30;;;;;;;;;;;6.10;99.90;;;;;;5049597;28;19963;-61
2022/03/18 04:12:58;;;;;;;;;;;6.20;99.90;;;;;;5050747;28;19966;-61
2022/03/18 04:15:26;;;;;;;;;;;6.10;99.90;;;;;;5050534;28;19990;-62
2022/03/18 04:17:54;;;;;;;;;;;6.20;99.90;;;;;;5051701;28;19978;-62
2022/03/18 04:20:22;;;;;;;;;;;6.20;99.90;;;;;;5049190;28;20057;-62
2022/03/18 04:22:52;;;;;;;;;;;6.20;99.90;;;;;;5050921;28;20338;-62
2022/03/18 04:25:21;;;;;;;;;;;6.20;99.90;;;;;;5049676;28;20054;-62
2022/03/18 04:27:49;;;;;;;;;;;6.20;99.90;;;;;;5049350;28;20077;-62
2022/03/18 04:30:17;;;;;;;;;;;6.10;99.90;;;;;;5049013;28;20403;-63
2022/03/18 04:32:45;;;;;;;;;;;6.10;99.90;;;;;;5051152;28;19963;-62
2022/03/18 04:35:12;;;;;;;;;;;6.10;99.90;;;;;;5060808;28;20053;-62
2022/03/18 04:37:41;;;;;;;;;;;6.10;99.90;;;;;;5051460;28;20008;-62
2022/03/18 04:40:11;;;;;;;;;;;6.10;99.90;;;;;;5050260;28;20061;-61
2022/03/18 04:42:39;;;;;;;;;;;6.10;99.90;;;;;;5049553;28;20064;-62
2022/03/18 04:45:07;;;;;;;;;;;6.10;99.90;;;;;;5050507;28;20057;-62
2022/03/18 04:47:35;;;;;;;;;;;6.10;99.90;;;;;;5050998;28;20013;-61
2022/03/18 04:50:04;;;;;;;;;;;6.10;99.90;;;;;;5049807;28;20001;-61
2022/03/18 04:52:32;;;;;;;;;;;6.10;99.90;;;;;;5046428;28;19998;-62
2022/03/18 04:54:59;;;;;;;;;;;6.10;99.90;;;;;;5049223;28;19985;-62
2022/03/18 04:57:28;;;;;;;;;;;6.10;99.90;;;;;;5050461;28;20323;-61
2022/03/18 04:59:56;;;;;;;;;;;6.10;99.90;;;;;;5049572;28;19994;-62
2022/03/18 05:02:24;;;;;;;;;;;6.00;99.90;;;;;;5047477;28;20046;-62
2022/03/18 05:04:53;;;;;;;;;;;6.00;99.90;;;;;;5048332;28;20030;-61
2022/03/18 05:07:21;;;;;;;;;;;6.00;99.90;;;;;;5054069;28;19959;-62
2022/03/18 05:09:49;;;;;;;;;;;6.00;99.90;;;;;;5048468;28;20057;-61
2022/03/18 05:12:17;;;;;;;;;;;6.00;99.90;;;;;;5050060;28;19998;-62
2022/03/18 05:14:53;;;;;;;;;;;6.00;99.90;;;;;;5048452;28;20042;-61
2022/03/18 05:17:20;;;;;;;;;;;6.00;99.90;;;;;;5049858;28;20470;-62
2022/03/18 05:19:48;;;;;;;;;;;6.10;99.90;;;;;;5048457;28;20023;-62
2022/03/18 05:22:16;;;;;;;;;;;6.00;99.90;;;;;;5048543;28;20063;-62
2022/03/18 05:24:44;;;;;;;;;;;5.90;99.90;;;;;;5049771;28;19969;-61
2022/03/18 05:27:12;;;;;;;;;;;5.90;99.90;;;;;;5048490;28;20124;-62
2022/03/18 05:29:39;;;;;;;;;;;5.90;99.90;;;;;;5050086;28;20426;-60
2022/03/18 05:32:09;;;;;;;;;;;5.90;99.90;;;;;;5046460;28;20073;-61
2022/03/18 05:34:36;;;;;;;;;;;5.80;99.90;;;;;;5052952;28;19963;-61
2022/03/18 05:37:05;;;;;;;;;;;5.80;99.90;;;;;;5048574;28;20478;-62
2022/03/18 05:39:33;;;;;;;;;;;5.80;99.90;;;;;;5052338;28;20667;-62
2022/03/18 05:42:01;;;;;;;;;;;5.80;99.90;;;;;;5052180;28;20059;-61
2022/03/18 05:44:29;;;;;;;;;;;5.80;99.90;;;;;;5050246;28;20065;-62
2022/03/18 05:46:57;;;;;;;;;;;5.80;99.90;;;;;;5049566;28;20165;-62
2022/03/18 05:49:26;;;;;;;;;;;5.80;99.90;;;;;;5042040;28;19965;-62
2022/03/18 05:51:54;;;;;;;;;;;5.80;99.90;;;;;;5043867;28;19959;-62
2022/03/18 05:54:21;;;;;;;;;;;5.70;99.90;;;;;;5043985;28;20074;-62
2022/03/18 05:56:54;;;;;;;;;;;5.80;99.90;;;;;;5042951;28;20443;-62
2022/03/18 05:59:23;;;;;;;;;;;5.80;99.90;;;;;;5045569;28;19970;-62
2022/03/18 06:01:50;;;;;;;;;;;5.70;99.90;;;;;;5048823;28;20069;-61
2022/03/18 06:04:18;;;;;;;;;;;5.70;99.90;;;;;;5051603;28;19966;-62
2022/03/18 06:06:48;;;;;;;;;;;5.70;99.90;;;;;;5053891;28;20510;-61
2022/03/18 06:12:01;;;;;;;;;;;5.70;99.90;;;;;;5048188;28;20067;-62
2022/03/18 06:14:30;;;;;;;;;;;5.70;99.90;;;;;;5047052;28;19964;-62
2022/03/18 06:16:59;;;;;;;;;;;5.80;99.90;;;;;;5048440;28;20061;-61
2022/03/18 06:19:27;;;;;;;;;;;5.80;99.90;;;;;;5046325;28;20516;-62
2022/03/18 06:21:57;;;;;;;;;;;5.80;99.90;;;;;;5048626;28;20492;-62
2022/03/18 06:24:25;;;;;;;;;;;5.90;99.90;;;;;;5046823;28;19964;-62
2022/03/18 06:26:53;;;;;;;;;;;5.80;99.90;;;;;;5046640;28;20455;-62
2022/03/18 06:29:21;;;;;;;;;;;5.80;99.90;;;;;;5046105;28;20569;-62
2022/03/18 06:31:49;;;;;;;;;;;5.80;99.90;;;;;;5048336;28;19966;-63
2022/03/18 06:34:18;;;;;;;;;;;5.90;99.90;;;;;;5047252;28;19994;-63
2022/03/18 06:36:45;;;;;;;;;;;5.90;99.90;;;;;;5046427;28;20468;-62
2022/03/18 06:39:15;;;;;;;;;;;5.90;99.90;;;;;;5048197;28;20511;-62
2022/03/18 06:41:42;;;;;;;;;;;6.00;99.90;;;;;;5047889;28;20052;-63
2022/03/18 06:44:10;;;;;;;;;;;6.00;99.90;;;;;;5047706;28;20473;-62
2022/03/18 06:46:38;;;;;;;;;;;6.00;99.90;;;;;;5047753;28;20078;-63
2022/03/18 06:49:06;;;;;;;;;;;6.00;99.90;;;;;;5044465;28;20365;-63
2022/03/18 06:51:34;;;;;;;;;;;6.10;99.90;;;;;;5048043;28;20061;-62
2022/03/18 06:54:02;;;;;;;;;;;6.00;99.90;;;;;;5048582;28;19967;-64
2022/03/18 06:56:31;;;;;;;;;;;6.10;99.90;;;;;;5047397;28;20037;-63
2022/03/18 06:58:59;;;;;;;;;;;6.10;99.90;;;;;;5047551;28;20053;-62
2022/03/18 07:01:27;;;;;;;;;;;6.10;99.90;;;;;;5047640;28;19967;-62
2022/03/18 07:03:55;;;;;;;;;;;6.10;99.90;;;;;;5047443;28;20400;-63
2022/03/18 07:06:23;;;;;;;;;;;6.20;99.90;;;;;;5047167;28;19967;-62
2022/03/18 07:08:51;;;;;;;;;;;6.20;99.90;;;;;;5047348;28;19969;-64
2022/03/18 07:11:19;;;;;;;;;;;6.30;99.90;;;;;;5047773;28;20779;-62
2022/03/18 07:13:48;;;;;;;;;;;6.30;99.90;;;;;;5046854;28;19966;-63
2022/03/18 07:19:01;;;;;;;;;;;6.40;99.90;;;;;;5051550;28;19965;-63
2022/03/18 07:21:28;;;;;;;;;;;6.40;99.90;;;;;;5051834;28;20008;-63
2022/03/18 07:23:56;;;;;;;;;;;6.40;99.90;;;;;;5052681;28;20050;-63
2022/03/18 07:26:24;;;;;;;;;;;6.40;99.90;;;;;;5052610;28;20073;-63
2022/03/18 07:28:53;;;;;;;;;;;6.50;99.90;;;;;;5052544;28;20057;-63
2022/03/18 07:31:21;;;;;;;;;;;6.50;99.90;;;;;;5052863;28;20009;-64
2022/03/18 07:33:51;;;;;;;;;;;6.50;99.90;;;;;;5055512;28;19963;-62
2022/03/18 07:36:19;;;;;;;;;;;6.50;99.90;;;;;;5046419;28;20057;-63
2022/03/18 07:38:47;;;;;;;;;;;6.50;99.90;;;;;;5046392;28;20483;-62
2022/03/18 07:41:17;;;;;;;;;;;6.60;99.90;;;;;;5046166;28;20010;-62
2022/03/18 07:43:44;;;;;;;;;;;6.60;99.90;;;;;;5052055;28;20016;-63
2022/03/18 07:46:13;;;;;;;;;;;6.70;99.90;;;;;;5052395;28;19967;-63
2022/03/18 07:48:44;;;;;;;;;;;6.70;99.90;;;;;;5052245;28;20354;-62
2022/03/18 07:51:12;;;;;;;;;;;6.60;99.90;;;;;;5052419;28;19990;-63
2022/03/18 07:53:40;;;;;;;;;;;6.60;99.90;;;;;;5052084;28;20058;-63
2022/03/18 07:56:08;;;;;;;;;;;6.70;99.90;;;;;;5051985;28;20417;-63
2022/03/18 07:58:35;;;;;;;;;;;6.80;99.90;;;;;;5052104;28;20012;-63
2022/03/18 08:01:05;;;;;;;;;;;6.90;99.90;;;;;;5052135;28;20002;-62
2022/03/18 08:03:34;;;;;;;;;;;7.00;99.90;;;;;;5051271;28;19963;-62
2022/03/18 08:06:04;;;;;;;;;;;7.10;99.90;;;;;;5050318;28;19959;-63
2022/03/18 08:08:31;;;;;;;;;;;7.20;99.90;;;;;;5052048;28;19998;-63
2022/03/18 08:10:59;;;;;;;;;;;7.30;99.90;;;;;;5051701;28;19967;-63
2022/03/18 08:13:27;;;;;;;;;;;7.30;99.90;;;;;;5051647;28;20051;-63
2022/03/18 08:15:55;;;;;;;;;;;7.50;99.90;;;;;;5051828;28;19998;-63
2022/03/18 08:18:22;;;;;;;;;;;7.60;99.90;;;;;;5052019;28;19961;-63
2022/03/18 08:20:52;;;;;;;;;;;7.70;99.90;;;;;;5050617;28;20490;-63
2022/03/18 08:23:19;;;;;;;;;;;7.70;99.90;;;;;;5051444;28;20415;-62
2022/03/18 08:25:47;;;;;;;;;;;7.70;99.90;;;;;;5051786;28;20065;-63
2022/03/18 08:28:15;;;;;;;;;;;7.80;99.90;;;;;;5051544;28;20057;-62
2022/03/18 08:30:42;;;;;;;;;;;7.90;99.90;;;;;;5051927;28;19966;-63
2022/03/18 08:33:10;;;;;;;;;;;8.00;99.90;;;;;;5050637;28;20005;-63
2022/03/18 08:35:38;;;;;;;;;;;8.00;99.90;;;;;;5051518;28;20070;-63
2022/03/18 08:38:09;;;;;;;;;;;8.20;99.90;;;;;;5051725;28;20427;-63
2022/03/18 08:40:37;;;;;;;;;;;8.40;99.90;;;;;;5051688;28;20065;-64
2022/03/18 08:43:06;;;;;;;;;;;8.30;99.90;;;;;;5044202;28;19971;-63
2022/03/18 08:45:35;;;;;;;;;;;8.40;99.90;;;;;;5045594;28;20010;-63
2022/03/18 08:48:03;;;;;;;;;;;8.50;99.90;;;;;;5045437;28;20009;-63
2022/03/18 08:50:31;;;;;;;;;;;8.70;99.90;;;;;;5045407;28;20387;-63
2022/03/18 08:52:58;;;;;;;;;;;9.00;99.90;;;;;;5050909;28;20061;-63
2022/03/18 08:55:27;;;;;;;;;;;9.10;99.90;;;;;;5051503;28;20013;-63
2022/03/18 08:57:55;;;;;;;;;;;9.30;99.90;;;;;;5051213;28;19997;-62
2022/03/18 09:00:23;;;;;;;;;;;9.50;99.90;;;;;;5051450;28;20049;-63
2022/03/18 09:02:51;;;;;;;;;;;9.60;99.90;;;;;;5050984;28;20002;-63
2022/03/18 09:05:19;;;;;;;;;;;9.80;99.90;;;;;;5051070;28;19969;-63
2022/03/18 09:07:47;;;;;;;;;;;9.80;99.90;;;;;;5050812;28;20477;-63
2022/03/18 09:10:15;;;;;;;;;;;10.00;99.90;;;;;;5051435;28;20398;-63
2022/03/18 09:12:47;;;;;;;;;;;10.00;99.90;;;;;;5050947;28;20386;-63
2022/03/18 09:15:15;;;;;;;;;;;10.00;99.90;;;;;;5051151;28;19975;-63
2022/03/18 09:17:43;;;;;;;;;;;9.80;99.90;;;;;;5051348;28;20073;-62
2022/03/18 09:20:11;;;;;;;;;;;9.60;99.90;;;;;;5051346;28;20005;-63
2022/03/18 09:22:39;;;;;;;;;;;9.60;99.90;;;;;;5050502;28;20436;-63
2022/03/18 09:25:07;;;;;;;;;;;9.40;99.90;;;;;;5051131;28;20054;-63
2022/03/18 09:27:35;;;;;;;;;;;9.30;99.90;;;;;;5051149;28;20010;-63
2022/03/18 09:30:10;;;;;;;;;;;9.20;99.90;;;;;;5051446;28;20048;-62
2022/03/18 09:32:38;;;;;;;;;;;9.30;99.90;;;;;;5051945;28;20458;-64
2022/03/18 09:35:06;;;;;;;;;;;9.20;99.90;;;;;;5054726;28;20476;-63
2022/03/18 09:37:34;;;;;;;;;;;9.10;99.90;;;;;;5054389;28;20081;-61
2022/03/18 09:40:04;;;;;;;;;;;9.20;99.90;;;;;;5054919;28;20058;-63
2022/03/18 09:42:57;;;;;;;;;;;9.30;99.90;;;;;;5054489;28;19973;-63
2022/03/18 09:45:30;;;;;;;;;;;9.60;99.90;;;;;;5054668;28;20065;-63
2022/03/18 09:47:59;;;;;;;;;;;9.60;99.90;;;;;;5049117;28;19970;-63
2022/03/18 09:50:26;;;;;;;;;;;9.70;99.90;;;;;;5054706;28;20424;-63
2022/03/18 09:52:54;;;;;;;;;;;9.60;99.90;;;;;;5054223;28;20462;-63
2022/03/18 09:55:22;;;;;;;;;;;9.70;99.90;;;;;;5054669;28;20056;-63
2022/03/18 09:57:50;;;;;;;;;;;10.00;99.90;;;;;;5054307;28;20008;-63
2022/03/18 10:00:17;;;;;;;;;;;10.00;99.90;;;;;;5054724;28;20068;-63
2022/03/18 10:02:46;;;;;;;;;;;10.10;99.90;;;;;;5054030;28;20037;-63
2022/03/18 10:05:15;;;;;;;;;;;10.10;99.90;;;;;;5054279;28;19968;-63
2022/03/18 10:07:53;;;;;;;;;;;9.90;99.90;;;;;;5053889;28;19965;-63
2022/03/18 10:10:23;;;;;;;;;;;9.90;99.90;;;;;;5054065;28;19990;-63
2022/03/18 10:12:54;;;;;;;;;;;9.90;99.90;;;;;;5053833;28;19961;-62
2022/03/18 10:15:23;;;;;;;;;;;10.10;99.90;;;;;;5054369;28;19962;-63
2022/03/18 10:17:53;;;;;;;;;;;10.20;99.60;;;;;;5054080;28;19967;-63
2022/03/18 10:20:32;;;;;;;;;;;10.40;99.90;;;;;;5054148;28;19966;-63
2022/03/18 10:23:04;;;;;;;;;;;10.40;99.40;;;;;;5053278;28;19962;-63
2022/03/18 10:25:39;;;;;;;;;;;10.60;99.10;;;;;;5054053;28;20049;-63
2022/03/18 10:28:07;;;;;;;;;;;10.70;99.10;;;;;;5048007;28;20101;-63
2022/03/18 10:30:35;;;;;;;;;;;10.80;99.50;;;;;;5053929;28;20053;-63
2022/03/18 10:33:06;;;;;;;;;;;10.90;99.80;;;;;;5053259;28;19985;-63
2022/03/18 10:38:26;;;;;;;;;;;11.40;99.70;;;;;;5053776;28;20059;-63
2022/03/18 10:40:55;;;;;;;;;;;11.80;97.70;;;;;;5053842;28;20059;-64
2022/03/18 10:43:23;;;;;;;;;;;12.00;97.00;;;;;;5053444;28;19999;-64
2022/03/18 10:46:01;;;;;;;;;;;12.30;96.90;;;;;;5053178;28;19970;-64
2022/03/18 10:48:31;;;;;;;;;;;12.70;96.70;;;;;;5053566;28;20431;-63
2022/03/18 10:51:02;;;;;;;;;;;13.10;96.40;;;;;;5053666;28;20053;-64
2022/03/18 10:53:30;;;;;;;;;;;13.10;96.20;;;;;;5046393;28;20290;-64
2022/03/18 10:56:01;;;;;;;;;;;13.20;96.90;;;;;;5046945;28;19960;-63
2022/03/18 10:58:32;;;;;;;;;;;13.20;95.80;;;;;;5047158;28;19968;-64
2022/03/18 11:01:03;;;;;;;;;;;13.10;96.60;;;;;;5053290;28;20052;-64
2022/03/18 11:03:34;;;;;;;;;;;13.30;96.60;;;;;;5052956;28;19963;-64
2022/03/18 11:06:03;;;;;;;;;;;13.70;95.60;;;;;;5052818;28;19961;-64
2022/03/18 11:08:40;;;;;;;;;;;13.90;94.90;;;;;;5054319;28;20300;-63
2022/03/18 11:11:10;;;;;;;;;;;13.90;93.80;;;;;;5053262;28;20011;-62
2022/03/18 11:13:46;;;;;;;;;;;14.00;94.50;;;;;;5053069;28;19971;-64
2022/03/18 11:16:17;;;;;;;;;;;13.90;94.30;;;;;;5053163;28;20059;-64
2022/03/18 11:18:46;;;;;;;;;;;13.70;95.10;;;;;;5052981;28;20012;-64
2022/03/18 11:21:15;;;;;;;;;;;13.80;95.50;;;;;;5053133;28;19993;-64
2022/03/18 11:23:44;;;;;;;;;;;13.90;95.20;;;;;;5052202;28;20025;-64
2022/03/18 11:26:14;;;;;;;;;;;14.10;95.30;;;;;;5052816;28;20047;-63
2022/03/18 11:28:41;;;;;;;;;;;14.60;95.60;;;;;;5052720;28;19961;-63
2022/03/18 11:31:10;;;;;;;;;;;15.00;94.30;;;;;;5052814;28;20063;-63
2022/03/18 11:33:38;;;;;;;;;;;14.90;93.80;;;;;;5052157;28;20346;-62
2022/03/18 11:36:15;;;;;;;;;;;15.00;94.00;;;;;;5052341;28;19972;-63
2022/03/18 11:39:03;;;;;;;;;;;15.00;93.00;;;;;;5049476;28;20327;-64
2022/03/18 11:41:48;;;;;;;;;;;15.00;92.80;;;;;;5053111;28;20108;-64
2022/03/18 11:44:34;;;;;;;;;;;15.30;92.60;;;;;;5052320;28;20008;-64
2022/03/18 11:47:17;;;;;;;;;;;15.30;92.20;;;;;;5052536;28;19969;-62
2022/03/18 11:49:44;;;;;;;;;;;15.70;92.30;;;;;;5051958;28;19967;-63
2022/03/18 11:52:13;;;;;;;;;;;15.80;91.10;;;;;;5051881;28;20481;-63
2022/03/18 11:54:49;;;;;;;;;;;16.00;90.90;;;;;;5052186;28;20053;-63
2022/03/18 11:57:27;;;;;;;;;;;16.10;90.50;;;;;;5051371;28;20396;-63
2022/03/18 11:59:57;;;;;;;;;;;16.40;88.70;;;;;;5052399;28;20002;-63
2022/03/18 12:02:31;;;;;;;;;;;16.20;87.70;;;;;;5052177;28;19967;-63
2022/03/18 12:04:59;;;;;;;;;;;16.10;86.10;;;;;;5052009;28;19970;-64
2022/03/18 12:07:30;;;;;;;;;;;16.00;85.60;;;;;;5051592;28;19963;-64
2022/03/18 12:09:59;;;;;;;;;;;16.20;85.60;;;;;;5052179;28;19967;-63
2022/03/18 12:12:28;;;;;;;;;;;16.40;85.00;;;;;;5051500;28;20002;-64
2022/03/18 12:14:58;;;;;;;;;;;16.70;85.00;;;;;;5052098;28;20341;-63
2022/03/18 12:17:26;;;;;;;;;;;16.90;84.50;;;;;;5051950;28;20020;-63
2022/03/18 12:19:54;;;;;;;;;;;16.90;85.50;;;;;;5052184;28;19974;-63
2022/03/18 12:22:23;;;;;;;;;;;16.90;82.20;;;;;;5051388;28;19999;-64
2022/03/18 12:24:53;;;;;;;;;;;16.60;81.50;;;;;;5051897;28;20511;-64
2022/03/18 12:27:21;;;;;;;;;;;16.60;81.90;;;;;;5051708;28;19967;-64
2022/03/18 12:29:51;;;;;;;;;;;16.80;82.20;;;;;;5051820;28;20065;-63
2022/03/18 12:32:19;;;;;;;;;;;17.10;80.10;;;;;;5051268;28;20491;-63
2022/03/18 12:34:48;;;;;;;;;;;17.20;77.40;;;;;;5051506;28;19962;-64
2022/03/18 12:37:17;;;;;;;;;;;17.20;76.90;;;;;;5051024;28;20543;-63
2022/03/18 12:39:45;;;;;;;;;;;17.50;74.40;;;;;;5051859;28;19962;-63
2022/03/18 12:42:14;;;;;;;;;;;17.10;73.90;;;;;;5051722;28;20057;-64
2022/03/18 12:44:45;;;;;;;;;;;17.00;72.30;;;;;;5051554;28;20073;-64
2022/03/18 12:47:13;;;;;;;;;;;17.10;73.40;;;;;;5051464;28;20022;-63
2022/03/18 12:49:41;;;;;;;;;;;17.40;71.50;;;;;;5051716;28;19969;-64
2022/03/18 12:52:10;;;;;;;;;;;17.30;72.10;;;;;;5051289;28;20006;-64
2022/03/18 12:54:38;;;;;;;;;;;17.60;71.20;;;;;;5051469;28;20061;-63
2022/03/18 12:57:09;;;;;;;;;;;17.80;69.60;;;;;;5051277;28;20002;-63
2022/03/18 12:59:39;;;;;;;;;;;17.80;68.50;;;;;;5051316;28;20013;-63
2022/03/18 13:02:27;;;;;;;;;;;17.50;69.80;;;;;;5051454;28;19967;-63
2022/03/18 13:04:58;;;;;;;;;;;17.00;67.50;;;;;;5051301;28;20393;-63
2022/03/18 13:07:26;;;;;;;;;;;16.90;69.60;;;;;;5051812;28;20017;-63
2022/03/18 13:10:00;;;;;;;;;;;16.70;68.50;;;;;;5055699;28;19963;-63
2022/03/18 13:12:29;;;;;;;;;;;17.00;67.40;;;;;;5055262;28;20395;-63
2022/03/18 13:14:59;;;;;;;;;;;17.30;67.50;;;;;;5049840;28;19963;-63
2022/03/18 13:17:30;;;;;;;;;;;17.50;67.10;;;;;;5055219;28;20000;-64
2022/03/18 13:19:59;;;;;;;;;;;17.60;64.80;;;;;;5055061;28;19966;-63
2022/03/18 13:22:28;;;;;;;;;;;17.70;63.80;;;;;;5055004;28;19989;-63
2022/03/18 13:24:59;;;;;;;;;;;17.80;65.90;;;;;;5055187;28;19967;-63
2022/03/18 13:27:27;;;;;;;2.42;1.75;;;17.80;64.30;;;;;;5054474;28;20559;-64
2022/03/18 13:32:53;;;;;;;8.55;2.03;;;17.80;63.30;;;;;;5054268;28;20311;-64
2022/03/18 13:35:24;;;;;;;2.28;1.60;;;17.50;63.50;;;;;;5054296;28;20208;-64
2022/03/18 13:38:11;;;;;;;2.05;1.40;;;17.60;62.90;;;;;;5054040;28;20224;-63
2022/03/18 13:40:41;;;;;;;3.72;1.65;;;17.30;61.00;;;;;;5054431;28;20200;-63
2022/03/18 13:43:10;;;;;;;4.00;1.60;;;17.30;61.50;;;;;;5054105;28;20208;-64
2022/03/18 13:45:43;;;;;;;2.58;1.35;;;17.30;62.60;;;;;;5054315;28;20204;-64
2022/03/18 13:48:26;;;;;;;1.42;1.33;;;17.50;62.20;;;;;;5054079;28;20632;-63
2022/03/18 13:50:54;;;;;;;6.20;1.80;;;17.50;62.90;;;;;;5049508;28;20223;-64
2022/03/18 13:53:23;;;;;;;4.28;1.80;;;17.50;62.20;;;;;;5053736;28;20192;-64
2022/03/18 13:55:52;;;;;;;2.78;1.52;;;17.40;62.30;;;;;;5054295;28;20228;-63
2022/03/18 13:58:26;;;;;;;1.95;1.20;;;17.30;61.60;;;;;;5053478;28;20306;-63
2022/03/18 14:01:05;;;;;;;3.72;1.08;;;17.20;62.10;;;;;;5053996;28;20298;-64
2022/03/18 14:03:35;;;;;;;3.65;1.17;;;17.10;61.30;;;;;;5054107;28;20204;-64
2022/03/18 14:06:04;;;;;;;2.67;1.33;;;17.10;62.70;;;;;;5051660;28;20204;-64
2022/03/18 14:08:38;;;;;;;2.17;1.25;;;17.20;61.60;;;;;;5053778;28;20203;-63
2022/03/18 14:14:28;;;;;;;3.05;1.60;;;16.90;61.40;;;;;;5054489;28;20235;-64
2022/03/18 14:17:16;;;;;;;6.30;1.30;;;17.10;62.30;;;;;;5047491;28;20220;-64
2022/03/18 14:19:56;;;;;;;2.40;1.15;;;17.20;60.80;;;;;;5052295;28;20266;-63
2022/03/18 14:22:33;;;;;;;2.05;1.48;;;17.20;60.50;;;;;;5053465;28;20201;-64
2022/03/18 14:25:02;;;;;;;1.40;1.20;;;17.10;60.90;;;;;;5053566;28;20239;-64
2022/03/18 14:27:30;;;;;;;3.22;1.73;;;17.10;61.00;;;;;;5053779;28;20314;-64
2022/03/18 14:30:05;;;;;;;1.70;1.10;;;17.00;60.20;;;;;;5053776;28;20257;-64
2022/03/18 14:32:33;;;;;;;3.70;1.38;;;17.10;60.30;;;;;;5053675;28;20667;-64
2022/03/18 14:35:03;;;;;;;1.60;1.10;;;17.10;60.20;;;;;;5053285;28;20231;-63
2022/03/18 14:37:32;;;;;;;1.40;1.30;;;16.80;58.90;;;;;;5052872;28;20314;-63
2022/03/18 14:40:00;;;;;;;3.67;1.83;;;16.50;59.30;;;;;;5052748;28;20247;-64
2022/03/18 14:42:28;;;;;;;1.77;1.13;;;16.30;59.80;;;;;;5052903;28;20714;-64
2022/03/18 14:44:57;;;;;;;2.05;1.10;;;16.10;60.30;;;;;;5053351;28;20640;-63
2022/03/18 14:47:25;;;;;;;2.28;1.33;;;16.20;60.90;;;;;;5052989;28;20247;-64
2022/03/18 14:49:54;;;;;;;3.75;1.42;;;16.10;60.70;;;;;;5052786;28;20291;-64